sensor_id;sensor_type;location;lat;lon;timestamp;P1;durP1;ratioP1;P2;durP2;ratioP2
6527;SDS011;64597;42.664;23.256;2023-03-08T00:00:31;9.80;;;5.85;;
6527;SDS011;64597;42.664;23.256;2023-03-08T00:02:56;10.88;;;5.70;;
6527;SDS011;64597;42.664;23.256;2023-03-08T00:05:22;8.40;;;5.18;;
6527;SDS011;64597;42.664;23.256;2023-03-08T00:07:47;7.55;;;4.75;;
6527;SDS011;64597;42.664;23.256;2023-03-08T00:10:13;8.40;;;4.93;;
6527;SDS011;64597;42.664;23.256;2023-03-08T00:12:38;8.35;;;4.72;;
6527;SDS011;64597;42.664;23.256;2023-03-08T00:15:04;9.88;;;5.75;;
6527;SDS011;64597;42.664;23.256;2023-03-08T00:17:30;11.82;;;6.35;;
6527;SDS011;64597;42.664;23.256;2023-03-08T00:19:55;10.27;;;6.65;;
6527;SDS011;64597;42.664;23.256;2023-03-08T00:22:21;11.13;;;6.45;;
6527;SDS011;64597;42.664;23.256;2023-03-08T00:24:47;8.18;;;5.07;;
6527;SDS011;64597;42.664;23.256;2023-03-08T00:27:12;10.90;;;5.32;;
6527;SDS011;64597;42.664;23.256;2023-03-08T00:29:38;9.80;;;5.30;;
6527;SDS011;64597;42.664;23.256;2023-03-08T00:32:03;9.73;;;5.70;;
6527;SDS011;64597;42.664;23.256;2023-03-08T00:34:28;9.25;;;5.90;;
6527;SDS011;64597;42.664;23.256;2023-03-08T00:36:54;9.52;;;5.60;;
6527;SDS011;64597;42.664;23.256;2023-03-08T00:39:19;9.35;;;5.35;;
6527;SDS011;64597;42.664;23.256;2023-03-08T00:41:45;10.30;;;5.07;;
6527;SDS011;64597;42.664;23.256;2023-03-08T00:44:10;7.60;;;5.13;;
6527;SDS011;64597;42.664;23.256;2023-03-08T00:46:35;8.13;;;4.70;;
6527;SDS011;64597;42.664;23.256;2023-03-08T00:49:01;5.20;;;3.42;;
6527;SDS011;64597;42.664;23.256;2023-03-08T00:51:28;6.95;;;4.47;;
6527;SDS011;64597;42.664;23.256;2023-03-08T00:53:53;8.27;;;4.10;;
6527;SDS011;64597;42.664;23.256;2023-03-08T00:56:19;6.35;;;3.75;;
6527;SDS011;64597;42.664;23.256;2023-03-08T00:58:44;8.23;;;3.55;;
6527;SDS011;64597;42.664;23.256;2023-03-08T01:01:14;5.85;;;3.65;;
6527;SDS011;64597;42.664;23.256;2023-03-08T01:03:41;7.75;;;3.90;;
6527;SDS011;64597;42.664;23.256;2023-03-08T01:06:08;8.48;;;3.70;;
6527;SDS011;64597;42.664;23.256;2023-03-08T01:08:36;7.90;;;3.38;;
6527;SDS011;64597;42.664;23.256;2023-03-08T01:11:04;6.38;;;3.75;;
6527;SDS011;64597;42.664;23.256;2023-03-08T01:13:31;8.05;;;3.92;;
6527;SDS011;64597;42.664;23.256;2023-03-08T01:15:58;7.38;;;3.30;;
6527;SDS011;64597;42.664;23.256;2023-03-08T01:18:24;6.85;;;3.15;;
6527;SDS011;64597;42.664;23.256;2023-03-08T01:20:57;5.25;;;2.63;;
6527;SDS011;64597;42.664;23.256;2023-03-08T01:23:23;5.45;;;3.65;;
6527;SDS011;64597;42.664;23.256;2023-03-08T01:25:56;7.15;;;4.35;;
6527;SDS011;64597;42.664;23.256;2023-03-08T01:28:32;5.25;;;3.15;;
6527;SDS011;64597;42.664;23.256;2023-03-08T01:31:06;6.00;;;3.60;;
6527;SDS011;64597;42.664;23.256;2023-03-08T01:33:33;6.43;;;3.75;;
6527;SDS011;64597;42.664;23.256;2023-03-08T01:36:01;8.05;;;4.20;;
6527;SDS011;64597;42.664;23.256;2023-03-08T01:38:31;7.20;;;3.63;;
6527;SDS011;64597;42.664;23.256;2023-03-08T01:40:57;6.10;;;3.10;;
6527;SDS011;64597;42.664;23.256;2023-03-08T01:43:28;7.57;;;4.00;;
6527;SDS011;64597;42.664;23.256;2023-03-08T01:46:06;4.68;;;2.83;;
6527;SDS011;64597;42.664;23.256;2023-03-08T01:51:33;5.03;;;4.00;;
6527;SDS011;64597;42.664;23.256;2023-03-08T01:54:27;8.95;;;3.47;;
6527;SDS011;64597;42.664;23.256;2023-03-08T01:56:58;4.57;;;2.80;;
6527;SDS011;64597;42.664;23.256;2023-03-08T01:59:27;4.47;;;3.58;;
6527;SDS011;64597;42.664;23.256;2023-03-08T02:01:55;5.15;;;3.08;;
6527;SDS011;64597;42.664;23.256;2023-03-08T02:04:21;6.35;;;3.28;;
6527;SDS011;64597;42.664;23.256;2023-03-08T02:06:47;5.10;;;3.47;;
6527;SDS011;64597;42.664;23.256;2023-03-08T02:09:12;4.53;;;3.60;;
6527;SDS011;64597;42.664;23.256;2023-03-08T02:11:38;5.60;;;3.50;;
6527;SDS011;64597;42.664;23.256;2023-03-08T02:14:05;6.03;;;3.17;;
6527;SDS011;64597;42.664;23.256;2023-03-08T02:16:30;5.40;;;3.30;;
6527;SDS011;64597;42.664;23.256;2023-03-08T02:19:00;5.28;;;3.38;;
6527;SDS011;64597;42.664;23.256;2023-03-08T02:21:29;5.82;;;3.67;;
6527;SDS011;64597;42.664;23.256;2023-03-08T02:24:01;5.32;;;3.22;;
6527;SDS011;64597;42.664;23.256;2023-03-08T02:26:31;7.03;;;3.30;;
6527;SDS011;64597;42.664;23.256;2023-03-08T02:28:58;6.88;;;3.88;;
6527;SDS011;64597;42.664;23.256;2023-03-08T02:31:23;3.75;;;2.75;;
6527;SDS011;64597;42.664;23.256;2023-03-08T02:33:48;5.30;;;3.83;;
6527;SDS011;64597;42.664;23.256;2023-03-08T02:36:16;4.88;;;3.25;;
6527;SDS011;64597;42.664;23.256;2023-03-08T02:38:41;7.60;;;3.10;;
6527;SDS011;64597;42.664;23.256;2023-03-08T02:41:07;6.60;;;3.22;;
6527;SDS011;64597;42.664;23.256;2023-03-08T02:43:32;7.20;;;3.53;;
6527;SDS011;64597;42.664;23.256;2023-03-08T02:45:58;4.50;;;3.47;;
6527;SDS011;64597;42.664;23.256;2023-03-08T02:48:23;7.07;;;4.03;;
6527;SDS011;64597;42.664;23.256;2023-03-08T02:50:49;7.70;;;3.97;;
6527;SDS011;64597;42.664;23.256;2023-03-08T02:53:14;7.43;;;3.60;;
6527;SDS011;64597;42.664;23.256;2023-03-08T02:55:40;7.63;;;4.03;;
6527;SDS011;64597;42.664;23.256;2023-03-08T02:58:06;6.75;;;4.25;;
6527;SDS011;64597;42.664;23.256;2023-03-08T03:00:33;6.38;;;3.50;;
6527;SDS011;64597;42.664;23.256;2023-03-08T03:02:59;6.72;;;3.88;;
6527;SDS011;64597;42.664;23.256;2023-03-08T03:05:24;6.93;;;3.65;;
6527;SDS011;64597;42.664;23.256;2023-03-08T03:07:51;5.82;;;3.67;;
6527;SDS011;64597;42.664;23.256;2023-03-08T03:10:16;4.72;;;3.90;;
6527;SDS011;64597;42.664;23.256;2023-03-08T03:12:42;5.45;;;3.78;;
6527;SDS011;64597;42.664;23.256;2023-03-08T03:15:10;9.95;;;4.22;;
6527;SDS011;64597;42.664;23.256;2023-03-08T03:17:36;7.28;;;4.20;;
6527;SDS011;64597;42.664;23.256;2023-03-08T03:20:03;10.88;;;6.07;;
6527;SDS011;64597;42.664;23.256;2023-03-08T03:22:33;7.18;;;4.45;;
6527;SDS011;64597;42.664;23.256;2023-03-08T03:24:59;8.32;;;5.22;;
6527;SDS011;64597;42.664;23.256;2023-03-08T03:27:24;16.77;;;8.07;;
6527;SDS011;64597;42.664;23.256;2023-03-08T03:29:50;13.38;;;8.13;;
6527;SDS011;64597;42.664;23.256;2023-03-08T03:32:15;13.85;;;8.50;;
6527;SDS011;64597;42.664;23.256;2023-03-08T03:34:41;14.00;;;7.47;;
6527;SDS011;64597;42.664;23.256;2023-03-08T03:37:06;11.40;;;7.00;;
6527;SDS011;64597;42.664;23.256;2023-03-08T03:39:38;9.88;;;5.90;;
6527;SDS011;64597;42.664;23.256;2023-03-08T03:42:06;10.68;;;6.00;;
6527;SDS011;64597;42.664;23.256;2023-03-08T03:44:32;9.60;;;6.28;;
6527;SDS011;64597;42.664;23.256;2023-03-08T03:46:58;7.28;;;4.95;;
6527;SDS011;64597;42.664;23.256;2023-03-08T03:49:23;9.70;;;6.20;;
6527;SDS011;64597;42.664;23.256;2023-03-08T03:51:49;11.13;;;6.90;;
6527;SDS011;64597;42.664;23.256;2023-03-08T03:54:14;14.82;;;7.95;;
6527;SDS011;64597;42.664;23.256;2023-03-08T03:56:40;14.00;;;7.95;;
6527;SDS011;64597;42.664;23.256;2023-03-08T03:59:05;12.57;;;7.30;;
6527;SDS011;64597;42.664;23.256;2023-03-08T04:01:31;12.57;;;7.25;;
6527;SDS011;64597;42.664;23.256;2023-03-08T04:03:57;13.45;;;7.97;;
6527;SDS011;64597;42.664;23.256;2023-03-08T04:08:50;10.13;;;6.60;;
6527;SDS011;64597;42.664;23.256;2023-03-08T04:11:18;11.13;;;5.63;;
6527;SDS011;64597;42.664;23.256;2023-03-08T04:13:45;10.68;;;6.38;;
6527;SDS011;64597;42.664;23.256;2023-03-08T04:16:12;13.32;;;6.18;;
6527;SDS011;64597;42.664;23.256;2023-03-08T04:18:40;13.60;;;6.53;;
6527;SDS011;64597;42.664;23.256;2023-03-08T04:21:05;9.35;;;5.80;;
6527;SDS011;64597;42.664;23.256;2023-03-08T04:23:31;15.82;;;6.20;;
6527;SDS011;64597;42.664;23.256;2023-03-08T04:25:58;13.27;;;6.55;;
6527;SDS011;64597;42.664;23.256;2023-03-08T04:28:23;11.70;;;5.65;;
6527;SDS011;64597;42.664;23.256;2023-03-08T04:30:49;10.25;;;7.03;;
6527;SDS011;64597;42.664;23.256;2023-03-08T04:33:14;14.95;;;6.90;;
6527;SDS011;64597;42.664;23.256;2023-03-08T04:35:40;14.45;;;6.22;;
6527;SDS011;64597;42.664;23.256;2023-03-08T04:38:05;16.05;;;6.85;;
6527;SDS011;64597;42.664;23.256;2023-03-08T04:40:31;13.02;;;6.20;;
6527;SDS011;64597;42.664;23.256;2023-03-08T04:42:56;12.63;;;6.60;;
6527;SDS011;64597;42.664;23.256;2023-03-08T04:45:22;12.65;;;5.90;;
6527;SDS011;64597;42.664;23.256;2023-03-08T04:47:47;11.18;;;6.40;;
6527;SDS011;64597;42.664;23.256;2023-03-08T04:50:13;14.77;;;6.45;;
6527;SDS011;64597;42.664;23.256;2023-03-08T04:52:38;18.48;;;6.55;;
6527;SDS011;64597;42.664;23.256;2023-03-08T04:55:04;13.35;;;7.00;;
6527;SDS011;64597;42.664;23.256;2023-03-08T04:57:30;10.90;;;6.70;;
6527;SDS011;64597;42.664;23.256;2023-03-08T04:59:55;18.15;;;7.60;;
6527;SDS011;64597;42.664;23.256;2023-03-08T05:02:21;19.40;;;7.03;;
6527;SDS011;64597;42.664;23.256;2023-03-08T05:04:47;12.73;;;7.07;;
6527;SDS011;64597;42.664;23.256;2023-03-08T05:07:12;14.93;;;8.65;;
6527;SDS011;64597;42.664;23.256;2023-03-08T05:09:38;14.80;;;7.82;;
6527;SDS011;64597;42.664;23.256;2023-03-08T05:12:03;14.07;;;7.90;;
6527;SDS011;64597;42.664;23.256;2023-03-08T05:14:29;13.00;;;6.88;;
6527;SDS011;64597;42.664;23.256;2023-03-08T05:16:55;13.73;;;6.07;;
6527;SDS011;64597;42.664;23.256;2023-03-08T05:19:21;12.63;;;6.65;;
6527;SDS011;64597;42.664;23.256;2023-03-08T05:21:47;13.40;;;6.68;;
6527;SDS011;64597;42.664;23.256;2023-03-08T05:24:12;10.25;;;5.70;;
6527;SDS011;64597;42.664;23.256;2023-03-08T05:26:38;15.30;;;6.30;;
6527;SDS011;64597;42.664;23.256;2023-03-08T05:29:03;12.43;;;7.05;;
6527;SDS011;64597;42.664;23.256;2023-03-08T05:31:30;12.57;;;5.78;;
6527;SDS011;64597;42.664;23.256;2023-03-08T05:33:56;11.45;;;7.30;;
6527;SDS011;64597;42.664;23.256;2023-03-08T05:36:22;15.40;;;6.57;;
6527;SDS011;64597;42.664;23.256;2023-03-08T05:38:51;10.85;;;6.13;;
6527;SDS011;64597;42.664;23.256;2023-03-08T05:41:17;11.65;;;6.15;;
6527;SDS011;64597;42.664;23.256;2023-03-08T05:43:43;12.88;;;7.47;;
6527;SDS011;64597;42.664;23.256;2023-03-08T05:46:13;19.42;;;8.07;;
6527;SDS011;64597;42.664;23.256;2023-03-08T05:48:40;13.55;;;7.22;;
6527;SDS011;64597;42.664;23.256;2023-03-08T05:51:06;12.45;;;7.60;;
6527;SDS011;64597;42.664;23.256;2023-03-08T05:53:34;14.70;;;8.20;;
6527;SDS011;64597;42.664;23.256;2023-03-08T05:56:11;13.57;;;7.22;;
6527;SDS011;64597;42.664;23.256;2023-03-08T05:58:40;13.60;;;8.05;;
6527;SDS011;64597;42.664;23.256;2023-03-08T06:01:07;14.95;;;7.68;;
6527;SDS011;64597;42.664;23.256;2023-03-08T06:03:34;14.68;;;6.93;;
6527;SDS011;64597;42.664;23.256;2023-03-08T06:05:59;17.73;;;8.95;;
6527;SDS011;64597;42.664;23.256;2023-03-08T06:08:24;12.70;;;8.02;;
6527;SDS011;64597;42.664;23.256;2023-03-08T06:10:50;15.68;;;8.05;;
6527;SDS011;64597;42.664;23.256;2023-03-08T06:13:15;12.55;;;7.20;;
6527;SDS011;64597;42.664;23.256;2023-03-08T06:15:41;16.95;;;8.63;;
6527;SDS011;64597;42.664;23.256;2023-03-08T06:18:06;17.52;;;9.02;;
6527;SDS011;64597;42.664;23.256;2023-03-08T06:20:31;18.00;;;10.20;;
6527;SDS011;64597;42.664;23.256;2023-03-08T06:22:57;22.20;;;10.10;;
6527;SDS011;64597;42.664;23.256;2023-03-08T06:25:22;12.15;;;6.90;;
6527;SDS011;64597;42.664;23.256;2023-03-08T06:27:48;13.02;;;6.38;;
6527;SDS011;64597;42.664;23.256;2023-03-08T06:30:13;15.50;;;6.88;;
6527;SDS011;64597;42.664;23.256;2023-03-08T06:32:39;13.27;;;7.05;;
6527;SDS011;64597;42.664;23.256;2023-03-08T06:35:05;10.98;;;6.55;;
6527;SDS011;64597;42.664;23.256;2023-03-08T06:37:31;13.85;;;6.95;;
6527;SDS011;64597;42.664;23.256;2023-03-08T06:39:58;8.05;;;5.07;;
6527;SDS011;64597;42.664;23.256;2023-03-08T06:42:24;11.38;;;5.68;;
6527;SDS011;64597;42.664;23.256;2023-03-08T06:44:49;6.65;;;3.67;;
6527;SDS011;64597;42.664;23.256;2023-03-08T06:47:15;7.35;;;4.30;;
6527;SDS011;64597;42.664;23.256;2023-03-08T06:49:40;6.95;;;4.20;;
6527;SDS011;64597;42.664;23.256;2023-03-08T06:52:06;9.35;;;4.20;;
6527;SDS011;64597;42.664;23.256;2023-03-08T06:54:31;11.93;;;5.47;;
6527;SDS011;64597;42.664;23.256;2023-03-08T06:56:57;9.20;;;4.25;;
6527;SDS011;64597;42.664;23.256;2023-03-08T06:59:22;9.73;;;4.40;;
6527;SDS011;64597;42.664;23.256;2023-03-08T07:01:47;10.75;;;5.05;;
6527;SDS011;64597;42.664;23.256;2023-03-08T07:04:13;9.85;;;4.90;;
6527;SDS011;64597;42.664;23.256;2023-03-08T07:06:38;6.68;;;4.03;;
6527;SDS011;64597;42.664;23.256;2023-03-08T07:09:04;6.07;;;3.75;;
6527;SDS011;64597;42.664;23.256;2023-03-08T07:11:29;9.43;;;4.55;;
6527;SDS011;64597;42.664;23.256;2023-03-08T07:13:56;7.30;;;3.95;;
6527;SDS011;64597;42.664;23.256;2023-03-08T07:16:22;11.15;;;4.40;;
6527;SDS011;64597;42.664;23.256;2023-03-08T07:18:48;6.88;;;3.67;;
6527;SDS011;64597;42.664;23.256;2023-03-08T07:21:13;7.53;;;4.07;;
6527;SDS011;64597;42.664;23.256;2023-03-08T07:23:39;8.18;;;4.30;;
6527;SDS011;64597;42.664;23.256;2023-03-08T07:26:05;8.65;;;4.47;;
6527;SDS011;64597;42.664;23.256;2023-03-08T07:28:33;11.98;;;4.63;;
6527;SDS011;64597;42.664;23.256;2023-03-08T07:30:59;9.07;;;4.53;;
6527;SDS011;64597;42.664;23.256;2023-03-08T07:33:24;6.38;;;4.22;;
6527;SDS011;64597;42.664;23.256;2023-03-08T07:35:50;10.05;;;5.20;;
6527;SDS011;64597;42.664;23.256;2023-03-08T07:38:16;8.27;;;4.43;;
6527;SDS011;64597;42.664;23.256;2023-03-08T07:40:41;9.32;;;4.38;;
6527;SDS011;64597;42.664;23.256;2023-03-08T07:43:07;8.23;;;4.22;;
6527;SDS011;64597;42.664;23.256;2023-03-08T07:45:33;9.70;;;5.18;;
6527;SDS011;64597;42.664;23.256;2023-03-08T07:47:59;10.18;;;4.55;;
6527;SDS011;64597;42.664;23.256;2023-03-08T07:50:24;6.68;;;4.32;;
6527;SDS011;64597;42.664;23.256;2023-03-08T07:52:50;9.82;;;5.80;;
6527;SDS011;64597;42.664;23.256;2023-03-08T07:55:16;9.95;;;4.50;;
6527;SDS011;64597;42.664;23.256;2023-03-08T07:57:41;9.40;;;4.72;;
6527;SDS011;64597;42.664;23.256;2023-03-08T08:00:07;8.80;;;4.90;;
6527;SDS011;64597;42.664;23.256;2023-03-08T08:02:34;7.80;;;4.25;;
6527;SDS011;64597;42.664;23.256;2023-03-08T08:05:00;6.63;;;4.07;;
6527;SDS011;64597;42.664;23.256;2023-03-08T08:07:25;9.70;;;4.30;;
6527;SDS011;64597;42.664;23.256;2023-03-08T08:09:51;9.65;;;4.65;;
6527;SDS011;64597;42.664;23.256;2023-03-08T08:12:16;10.60;;;4.43;;
6527;SDS011;64597;42.664;23.256;2023-03-08T08:14:42;8.00;;;4.95;;
6527;SDS011;64597;42.664;23.256;2023-03-08T08:17:08;7.07;;;4.45;;
6527;SDS011;64597;42.664;23.256;2023-03-08T08:19:35;7.63;;;4.32;;
6527;SDS011;64597;42.664;23.256;2023-03-08T08:22:01;9.25;;;4.68;;
6527;SDS011;64597;42.664;23.256;2023-03-08T08:24:27;10.40;;;4.18;;
6527;SDS011;64597;42.664;23.256;2023-03-08T08:26:52;11.23;;;4.80;;
6527;SDS011;64597;42.664;23.256;2023-03-08T08:29:18;9.70;;;4.32;;
6527;SDS011;64597;42.664;23.256;2023-03-08T08:31:43;8.18;;;5.07;;
6527;SDS011;64597;42.664;23.256;2023-03-08T08:34:09;8.82;;;4.35;;
6527;SDS011;64597;42.664;23.256;2023-03-08T08:36:34;9.93;;;4.70;;
6527;SDS011;64597;42.664;23.256;2023-03-08T08:39:00;10.48;;;5.38;;
6527;SDS011;64597;42.664;23.256;2023-03-08T08:41:25;8.18;;;4.03;;
6527;SDS011;64597;42.664;23.256;2023-03-08T08:43:53;9.50;;;3.95;;
6527;SDS011;64597;42.664;23.256;2023-03-08T08:46:22;8.10;;;4.13;;
6527;SDS011;64597;42.664;23.256;2023-03-08T08:48:48;11.65;;;5.05;;
6527;SDS011;64597;42.664;23.256;2023-03-08T08:51:14;8.40;;;3.95;;
6527;SDS011;64597;42.664;23.256;2023-03-08T08:53:40;7.25;;;3.88;;
6527;SDS011;64597;42.664;23.256;2023-03-08T08:56:19;6.90;;;4.03;;
6527;SDS011;64597;42.664;23.256;2023-03-08T08:58:46;7.88;;;4.93;;
6527;SDS011;64597;42.664;23.256;2023-03-08T09:01:15;13.20;;;5.13;;
6527;SDS011;64597;42.664;23.256;2023-03-08T09:03:49;11.00;;;4.97;;
6527;SDS011;64597;42.664;23.256;2023-03-08T09:06:15;7.38;;;4.38;;
6527;SDS011;64597;42.664;23.256;2023-03-08T09:08:44;6.53;;;4.25;;
6527;SDS011;64597;42.664;23.256;2023-03-08T09:11:12;7.03;;;4.75;;
6527;SDS011;64597;42.664;23.256;2023-03-08T09:13:38;8.15;;;4.22;;
6527;SDS011;64597;42.664;23.256;2023-03-08T09:16:05;9.07;;;4.32;;
6527;SDS011;64597;42.664;23.256;2023-03-08T09:18:31;12.70;;;5.30;;
6527;SDS011;64597;42.664;23.256;2023-03-08T09:20:59;11.05;;;5.95;;
6527;SDS011;64597;42.664;23.256;2023-03-08T09:23:25;11.65;;;5.15;;
6527;SDS011;64597;42.664;23.256;2023-03-08T09:25:53;9.18;;;5.22;;
6527;SDS011;64597;42.664;23.256;2023-03-08T09:28:20;12.70;;;5.65;;
6527;SDS011;64597;42.664;23.256;2023-03-08T09:30:45;9.48;;;4.82;;
6527;SDS011;64597;42.664;23.256;2023-03-08T09:33:11;9.05;;;5.82;;
6527;SDS011;64597;42.664;23.256;2023-03-08T09:35:36;11.63;;;6.30;;
6527;SDS011;64597;42.664;23.256;2023-03-08T09:38:02;10.23;;;5.72;;
6527;SDS011;64597;42.664;23.256;2023-03-08T09:40:28;14.10;;;7.72;;
6527;SDS011;64597;42.664;23.256;2023-03-08T09:43:08;12.20;;;6.65;;
6527;SDS011;64597;42.664;23.256;2023-03-08T09:45:50;7.75;;;5.70;;
6527;SDS011;64597;42.664;23.256;2023-03-08T09:48:18;10.00;;;5.80;;
6527;SDS011;64597;42.664;23.256;2023-03-08T09:50:51;10.88;;;6.15;;
6527;SDS011;64597;42.664;23.256;2023-03-08T09:53:54;7.97;;;5.80;;
6527;SDS011;64597;42.664;23.256;2023-03-08T09:56:31;10.32;;;5.22;;
6527;SDS011;64597;42.664;23.256;2023-03-08T09:59:03;14.27;;;6.20;;
6527;SDS011;64597;42.664;23.256;2023-03-08T10:01:42;11.35;;;6.03;;
6527;SDS011;64597;42.664;23.256;2023-03-08T10:04:37;9.52;;;5.00;;
6527;SDS011;64597;42.664;23.256;2023-03-08T10:07:33;8.27;;;4.75;;
6527;SDS011;64597;42.664;23.256;2023-03-08T10:15:35;11.18;;;5.53;;
6527;SDS011;64597;42.664;23.256;2023-03-08T10:20:40;8.90;;;5.45;;
6527;SDS011;64597;42.664;23.256;2023-03-08T10:23:14;10.27;;;5.07;;
6527;SDS011;64597;42.664;23.256;2023-03-08T10:25:42;3.58;;;1.55;;
6527;SDS011;64597;42.664;23.256;2023-03-08T10:28:10;2.30;;;1.27;;
6527;SDS011;64597;42.664;23.256;2023-03-08T10:30:48;2.38;;;1.10;;
6527;SDS011;64597;42.664;23.256;2023-03-08T10:33:19;2.05;;;0.98;;
6527;SDS011;64597;42.664;23.256;2023-03-08T10:35:52;3.58;;;1.50;;
6527;SDS011;64597;42.664;23.256;2023-03-08T10:38:27;1.02;;;0.70;;
6527;SDS011;64597;42.664;23.256;2023-03-08T10:43:44;2.80;;;1.10;;
6527;SDS011;64597;42.664;23.256;2023-03-08T10:46:16;1.63;;;0.85;;
6527;SDS011;64597;42.664;23.256;2023-03-08T10:48:43;2.17;;;1.20;;
6527;SDS011;64597;42.664;23.256;2023-03-08T10:53:52;1.38;;;0.90;;
6527;SDS011;64597;42.664;23.256;2023-03-08T10:56:23;2.10;;;1.30;;
6527;SDS011;64597;42.664;23.256;2023-03-08T10:58:55;2.05;;;1.17;;
6527;SDS011;64597;42.664;23.256;2023-03-08T11:06:31;1.60;;;0.82;;
6527;SDS011;64597;42.664;23.256;2023-03-08T11:08:58;2.72;;;1.30;;
6527;SDS011;64597;42.664;23.256;2023-03-08T11:11:24;2.15;;;1.00;;
6527;SDS011;64597;42.664;23.256;2023-03-08T11:13:51;3.28;;;1.20;;
6527;SDS011;64597;42.664;23.256;2023-03-08T11:19:13;1.90;;;1.10;;
6527;SDS011;64597;42.664;23.256;2023-03-08T11:30:34;5.50;;;1.17;;
6527;SDS011;64597;42.664;23.256;2023-03-08T11:39:25;2.60;;;1.05;;
6527;SDS011;64597;42.664;23.256;2023-03-08T11:50:30;1.50;;;1.00;;
6527;SDS011;64597;42.664;23.256;2023-03-08T11:58:53;2.95;;;1.75;;
6527;SDS011;64597;42.664;23.256;2023-03-08T12:01:36;2.53;;;0.90;;
6527;SDS011;64597;42.664;23.256;2023-03-08T12:07:20;1.15;;;0.93;;
6527;SDS011;64597;42.664;23.256;2023-03-08T12:12:50;4.00;;;1.30;;
6527;SDS011;64597;42.664;23.256;2023-03-08T12:15:34;3.78;;;1.50;;
6527;SDS011;64597;42.664;23.256;2023-03-08T12:20:47;2.35;;;1.00;;
6527;SDS011;64597;42.664;23.256;2023-03-08T12:23:20;3.05;;;1.13;;
6527;SDS011;64597;42.664;23.256;2023-03-08T12:25:54;3.03;;;1.27;;
6527;SDS011;64597;42.664;23.256;2023-03-08T12:28:37;2.83;;;1.30;;
6527;SDS011;64597;42.664;23.256;2023-03-08T12:34:13;2.92;;;1.35;;
6527;SDS011;64597;42.664;23.256;2023-03-08T12:36:51;2.47;;;1.60;;
6527;SDS011;64597;42.664;23.256;2023-03-08T12:39:28;2.92;;;1.52;;
6527;SDS011;64597;42.664;23.256;2023-03-08T12:44:30;1.70;;;1.05;;
6527;SDS011;64597;42.664;23.256;2023-03-08T12:46:59;1.98;;;1.10;;
6527;SDS011;64597;42.664;23.256;2023-03-08T12:50:05;3.67;;;1.17;;
6527;SDS011;64597;42.664;23.256;2023-03-08T12:52:31;3.08;;;1.25;;
6527;SDS011;64597;42.664;23.256;2023-03-08T12:57:37;4.55;;;1.65;;
6527;SDS011;64597;42.664;23.256;2023-03-08T13:03:05;2.05;;;1.13;;
6527;SDS011;64597;42.664;23.256;2023-03-08T13:05:38;4.35;;;1.40;;
6527;SDS011;64597;42.664;23.256;2023-03-08T13:10:37;2.97;;;1.50;;
6527;SDS011;64597;42.664;23.256;2023-03-08T13:15:33;4.43;;;1.10;;
6527;SDS011;64597;42.664;23.256;2023-03-08T13:23:17;4.07;;;1.13;;
6527;SDS011;64597;42.664;23.256;2023-03-08T13:26:15;4.40;;;1.10;;
6527;SDS011;64597;42.664;23.256;2023-03-08T13:28:43;1.88;;;0.90;;
6527;SDS011;64597;42.664;23.256;2023-03-08T13:31:14;3.03;;;1.20;;
6527;SDS011;64597;42.664;23.256;2023-03-08T13:33:43;2.92;;;1.20;;
6527;SDS011;64597;42.664;23.256;2023-03-08T13:36:19;2.10;;;1.90;;
6527;SDS011;64597;42.664;23.256;2023-03-08T13:41:29;4.75;;;1.20;;
6527;SDS011;64597;42.664;23.256;2023-03-08T13:44:03;2.40;;;1.13;;
6527;SDS011;64597;42.664;23.256;2023-03-08T13:46:30;4.03;;;0.85;;
6527;SDS011;64597;42.664;23.256;2023-03-08T13:48:56;2.95;;;1.30;;
6527;SDS011;64597;42.664;23.256;2023-03-08T13:51:22;1.67;;;1.00;;
6527;SDS011;64597;42.664;23.256;2023-03-08T13:53:51;3.00;;;1.20;;
6527;SDS011;64597;42.664;23.256;2023-03-08T13:56:19;4.10;;;1.05;;
6527;SDS011;64597;42.664;23.256;2023-03-08T13:58:49;3.97;;;1.77;;
6527;SDS011;64597;42.664;23.256;2023-03-08T14:01:19;4.55;;;1.23;;
6527;SDS011;64597;42.664;23.256;2023-03-08T14:03:49;7.50;;;1.58;;
6527;SDS011;64597;42.664;23.256;2023-03-08T14:08:43;6.25;;;1.40;;
6527;SDS011;64597;42.664;23.256;2023-03-08T14:11:17;3.28;;;1.17;;
6527;SDS011;64597;42.664;23.256;2023-03-08T14:18:50;2.55;;;1.45;;
6527;SDS011;64597;42.664;23.256;2023-03-08T14:21:23;6.55;;;1.88;;
6527;SDS011;64597;42.664;23.256;2023-03-08T14:23:52;2.53;;;1.20;;
6527;SDS011;64597;42.664;23.256;2023-03-08T14:32:23;5.88;;;1.40;;
6527;SDS011;64597;42.664;23.256;2023-03-08T14:35:02;3.88;;;1.50;;
6527;SDS011;64597;42.664;23.256;2023-03-08T14:37:30;2.70;;;1.60;;
6527;SDS011;64597;42.664;23.256;2023-03-08T14:40:14;2.78;;;1.20;;
6527;SDS011;64597;42.664;23.256;2023-03-08T14:42:45;2.90;;;1.52;;
6527;SDS011;64597;42.664;23.256;2023-03-08T14:53:32;3.13;;;1.27;;
6527;SDS011;64597;42.664;23.256;2023-03-08T14:56:01;2.28;;;1.23;;
6527;SDS011;64597;42.664;23.256;2023-03-08T14:58:31;2.35;;;1.33;;
6527;SDS011;64597;42.664;23.256;2023-03-08T15:01:01;1.50;;;1.10;;
6527;SDS011;64597;42.664;23.256;2023-03-08T15:03:27;2.33;;;1.17;;
6527;SDS011;64597;42.664;23.256;2023-03-08T15:05:54;1.90;;;1.10;;
6527;SDS011;64597;42.664;23.256;2023-03-08T15:08:20;2.83;;;1.83;;
6527;SDS011;64597;42.664;23.256;2023-03-08T15:10:46;1.48;;;1.38;;
6527;SDS011;64597;42.664;23.256;2023-03-08T15:13:17;3.17;;;1.55;;
6527;SDS011;64597;42.664;23.256;2023-03-08T15:15:45;2.83;;;1.52;;
6527;SDS011;64597;42.664;23.256;2023-03-08T15:18:11;4.10;;;2.60;;
6527;SDS011;64597;42.664;23.256;2023-03-08T15:20:37;5.57;;;2.33;;
6527;SDS011;64597;42.664;23.256;2023-03-08T15:23:09;3.30;;;1.80;;
6527;SDS011;64597;42.664;23.256;2023-03-08T15:25:41;3.55;;;1.45;;
6527;SDS011;64597;42.664;23.256;2023-03-08T15:28:09;3.00;;;1.10;;
6527;SDS011;64597;42.664;23.256;2023-03-08T15:30:38;3.25;;;1.30;;
6527;SDS011;64597;42.664;23.256;2023-03-08T15:33:03;2.97;;;1.95;;
6527;SDS011;64597;42.664;23.256;2023-03-08T15:35:29;2.05;;;1.40;;
6527;SDS011;64597;42.664;23.256;2023-03-08T15:37:55;2.65;;;2.25;;
6527;SDS011;64597;42.664;23.256;2023-03-08T15:40:22;1.40;;;1.00;;
6527;SDS011;64597;42.664;23.256;2023-03-08T15:42:49;3.10;;;1.50;;
6527;SDS011;64597;42.664;23.256;2023-03-08T15:45:15;4.20;;;1.52;;
6527;SDS011;64597;42.664;23.256;2023-03-08T15:47:41;2.22;;;1.30;;
6527;SDS011;64597;42.664;23.256;2023-03-08T15:50:14;2.38;;;1.25;;
6527;SDS011;64597;42.664;23.256;2023-03-08T15:52:42;2.08;;;1.23;;
6527;SDS011;64597;42.664;23.256;2023-03-08T15:55:09;1.75;;;1.20;;
6527;SDS011;64597;42.664;23.256;2023-03-08T15:57:36;5.07;;;1.40;;
6527;SDS011;64597;42.664;23.256;2023-03-08T16:00:04;6.70;;;1.45;;
6527;SDS011;64597;42.664;23.256;2023-03-08T16:02:33;2.40;;;1.33;;
6527;SDS011;64597;42.664;23.256;2023-03-08T16:05:00;2.88;;;1.50;;
6527;SDS011;64597;42.664;23.256;2023-03-08T16:07:26;4.03;;;1.60;;
6527;SDS011;64597;42.664;23.256;2023-03-08T16:09:52;2.17;;;1.42;;
6527;SDS011;64597;42.664;23.256;2023-03-08T16:12:18;2.03;;;1.60;;
6527;SDS011;64597;42.664;23.256;2023-03-08T16:14:45;2.03;;;1.48;;
6527;SDS011;64597;42.664;23.256;2023-03-08T16:17:15;1.42;;;1.17;;
6527;SDS011;64597;42.664;23.256;2023-03-08T16:19:42;1.88;;;1.15;;
6527;SDS011;64597;42.664;23.256;2023-03-08T16:22:09;4.70;;;1.63;;
6527;SDS011;64597;42.664;23.256;2023-03-08T16:24:35;2.85;;;1.58;;
6527;SDS011;64597;42.664;23.256;2023-03-08T16:27:01;2.67;;;2.17;;
6527;SDS011;64597;42.664;23.256;2023-03-08T16:29:29;3.20;;;2.28;;
6527;SDS011;64597;42.664;23.256;2023-03-08T16:31:55;5.43;;;2.92;;
6527;SDS011;64597;42.664;23.256;2023-03-08T16:34:25;4.20;;;2.50;;
6527;SDS011;64597;42.664;23.256;2023-03-08T16:36:52;7.05;;;3.67;;
6527;SDS011;64597;42.664;23.256;2023-03-08T16:39:18;5.68;;;3.35;;